createdAt,value
2018-03-04T00:00:13.764Z,4.30
2018-03-04T00:02:40.880Z,4.30
2018-03-04T00:05:07.292Z,4.30
2018-03-04T00:07:33.712Z,4.30
2018-03-04T00:10:00.081Z,4.40
2018-03-04T00:12:26.503Z,4.40
2018-03-04T00:14:52.906Z,4.40
2018-03-04T00:17:19.281Z,4.40
2018-03-04T00:19:45.694Z,4.40
2018-03-04T00:22:12.084Z,4.40
2018-03-04T00:24:38.476Z,4.40
2018-03-04T00:27:04.886Z,4.30
2018-03-04T00:29:31.304Z,4.30
2018-03-04T00:31:57.688Z,4.20
2018-03-04T00:34:24.874Z,4.20
2018-03-04T00:36:52.002Z,4.30
2018-03-04T00:39:18.476Z,4.30
2018-03-04T00:41:44.856Z,4.30
2018-03-04T00:44:11.311Z,4.30
2018-03-04T00:46:37.694Z,4.20
2018-03-04T00:49:04.080Z,4.20
2018-03-04T00:51:30.497Z,4.20
2018-03-04T00:53:56.909Z,4.20
2018-03-04T00:56:23.340Z,4.20
2018-03-04T00:58:50.482Z,4.20
2018-03-04T01:01:17.658Z,4.20
2018-03-04T01:03:44.048Z,4.20
2018-03-04T01:06:10.496Z,4.20
2018-03-04T01:08:37.649Z,4.30
2018-03-04T01:11:04.782Z,4.40
2018-03-04T01:13:31.930Z,4.50
2018-03-04T01:15:58.314Z,4.40
2018-03-04T01:18:24.706Z,4.50
2018-03-04T01:20:51.824Z,4.50
2018-03-04T01:23:18.200Z,4.50
2018-03-04T01:25:44.576Z,4.60
2018-03-04T01:28:11.017Z,4.60
2018-03-04T01:30:37.398Z,4.50
2018-03-04T01:33:03.755Z,4.50
2018-03-04T01:35:30.166Z,4.60
2018-03-04T01:37:56.584Z,4.60
2018-03-04T01:40:22.942Z,4.50
2018-03-04T01:42:49.357Z,4.50
2018-03-04T01:45:15.741Z,4.50
2018-03-04T01:47:42.111Z,4.50
2018-03-04T01:50:08.498Z,4.50
2018-03-04T01:52:34.878Z,4.50
2018-03-04T01:55:01.274Z,4.40
2018-03-04T01:57:28.425Z,4.30
2018-03-04T01:59:55.517Z,4.20
2018-03-04T02:02:21.951Z,4.20
2018-03-04T02:04:48.334Z,4.10
2018-03-04T02:07:15.496Z,4.00
2018-03-04T02:09:41.912Z,4.00
2018-03-04T02:12:09.025Z,3.90
2018-03-04T02:14:35.387Z,3.90
2018-03-04T02:17:01.756Z,3.80
2018-03-04T02:19:28.150Z,3.80
2018-03-04T02:21:55.262Z,3.60
2018-03-04T02:24:21.701Z,3.60
2018-03-04T02:26:48.080Z,3.60
2018-03-04T02:29:14.464Z,3.60
2018-03-04T02:31:40.847Z,3.60
2018-03-04T02:34:07.248Z,3.60
2018-03-04T02:36:34.411Z,3.60
2018-03-04T02:39:01.576Z,3.70
2018-03-04T02:41:27.954Z,3.60
2018-03-04T02:43:54.359Z,3.70
2018-03-04T02:46:20.752Z,3.60
2018-03-04T02:48:47.891Z,3.60
2018-03-04T02:51:15.032Z,3.50
2018-03-04T02:53:42.152Z,3.50
2018-03-04T02:56:08.498Z,3.50
2018-03-04T02:58:34.893Z,3.50
2018-03-04T03:01:02.009Z,3.50
2018-03-04T03:03:28.410Z,3.50
2018-03-04T03:05:54.759Z,3.60
2018-03-04T03:08:21.885Z,3.60
2018-03-04T03:10:48.273Z,3.60
2018-03-04T03:13:14.688Z,3.70
2018-03-04T03:15:41.062Z,3.60
2018-03-04T03:18:07.515Z,3.70
2018-03-04T03:20:33.893Z,3.60
2018-03-04T03:23:00.247Z,3.60
2018-03-04T03:25:26.633Z,3.60
2018-03-04T03:27:53.011Z,3.50
2018-03-04T03:30:19.401Z,3.50
2018-03-04T03:32:45.747Z,3.40
2018-03-04T03:35:12.169Z,3.50
2018-03-04T03:37:38.527Z,3.40
2018-03-04T03:40:04.918Z,3.40
2018-03-04T03:42:32.326Z,3.40
2018-03-04T03:44:58.681Z,3.40
2018-03-04T03:47:25.812Z,3.30
2018-03-04T03:49:52.182Z,3.30
2018-03-04T03:52:18.635Z,3.30
2018-03-04T03:54:45.002Z,3.30
2018-03-04T03:57:11.386Z,3.30
2018-03-04T03:59:37.772Z,3.10
2018-03-04T04:02:04.134Z,3.00
2018-03-04T04:04:30.540Z,3.00
2018-03-04T04:06:57.660Z,2.90
2018-03-04T04:09:24.083Z,2.90
2018-03-04T04:11:50.449Z,2.90
2018-03-04T04:14:16.844Z,2.90
2018-03-04T04:16:43.194Z,2.80
2018-03-04T04:19:09.638Z,2.80
2018-03-04T04:21:36.005Z,2.80
2018-03-04T04:24:02.407Z,2.80
2018-03-04T04:26:29.523Z,2.70
2018-03-04T04:28:55.882Z,2.60
2018-03-04T04:31:22.256Z,2.50
2018-03-04T04:33:48.641Z,2.50
2018-03-04T04:36:15.059Z,2.50
2018-03-04T04:38:41.446Z,2.50
2018-03-04T04:41:07.825Z,2.60
2018-03-04T04:43:34.230Z,2.50
2018-03-04T04:46:00.612Z,2.50
2018-03-04T04:48:27.780Z,2.50
2018-03-04T04:50:54.129Z,2.40
2018-03-04T04:53:20.494Z,2.60
2018-03-04T04:55:47.656Z,2.50
2018-03-04T04:58:14.782Z,2.50
2018-03-04T05:00:41.141Z,2.50
2018-03-04T05:03:08.260Z,2.40
2018-03-04T05:05:34.625Z,2.40
2018-03-04T05:08:01.773Z,2.40
2018-03-04T05:10:28.949Z,2.30
2018-03-04T05:12:55.343Z,2.30
2018-03-04T05:15:22.493Z,2.30
2018-03-04T05:17:49.605Z,2.30
2018-03-04T05:20:16.009Z,2.30
2018-03-04T05:22:42.358Z,2.30
2018-03-04T05:25:08.732Z,2.30
2018-03-04T05:27:35.137Z,2.20
2018-03-04T05:30:01.557Z,2.30
2018-03-04T05:32:27.929Z,2.30
2018-03-04T05:34:55.035Z,2.20
2018-03-04T05:37:21.398Z,2.20
2018-03-04T05:39:48.514Z,2.20
2018-03-04T05:42:14.934Z,2.20
2018-03-04T05:44:41.308Z,2.20
2018-03-04T05:47:08.480Z,2.10
2018-03-04T05:49:34.859Z,2.10
2018-03-04T05:52:02.105Z,2.00
2018-03-04T05:54:28.476Z,2.00
2018-03-04T05:56:55.621Z,2.10
2018-03-04T05:59:22.746Z,2.20
2018-03-04T06:01:49.097Z,2.10
2018-03-04T06:04:16.219Z,2.10
2018-03-04T06:06:42.554Z,2.10
2018-03-04T06:09:08.897Z,2.10
2018-03-04T06:11:35.261Z,2.10
2018-03-04T06:14:01.654Z,2.20
2018-03-04T06:16:28.756Z,2.10
2018-03-04T06:18:55.161Z,2.10
2018-03-04T06:21:21.585Z,2.10
2018-03-04T06:23:48.697Z,2.20
2018-03-04T06:26:15.081Z,2.10
2018-03-04T06:28:41.448Z,2.20
2018-03-04T06:31:07.848Z,2.30
2018-03-04T06:33:34.189Z,2.30
2018-03-04T06:36:00.586Z,2.30
2018-03-04T06:38:26.998Z,2.30
2018-03-04T06:40:54.135Z,2.30
2018-03-04T06:43:20.533Z,2.30
2018-03-04T06:45:46.902Z,2.30
2018-03-04T06:48:13.433Z,2.30
2018-03-04T06:50:39.807Z,2.30
2018-03-04T06:53:06.211Z,2.30
2018-03-04T06:55:33.333Z,2.30
2018-03-04T06:57:59.712Z,2.30
2018-03-04T07:00:26.094Z,2.30
2018-03-04T07:02:52.492Z,2.30
2018-03-04T07:05:18.841Z,2.40
2018-03-04T07:07:45.252Z,2.40
2018-03-04T07:10:11.659Z,2.50
2018-03-04T07:12:38.062Z,2.50
2018-03-04T07:15:05.205Z,2.60
2018-03-04T07:17:31.581Z,2.60
2018-03-04T07:19:58.033Z,2.60
2018-03-04T07:22:24.374Z,2.70
2018-03-04T07:24:50.785Z,2.80
2018-03-04T07:27:17.160Z,2.80
2018-03-04T07:29:43.576Z,2.90
2018-03-04T07:32:09.997Z,2.90
2018-03-04T07:34:36.442Z,2.90
2018-03-04T07:37:02.834Z,3.00
2018-03-04T07:39:29.200Z,3.10
2018-03-04T07:41:55.636Z,3.20
2018-03-04T07:44:22.006Z,3.20
2018-03-04T07:46:48.446Z,3.30
2018-03-04T07:49:14.849Z,3.40
2018-03-04T07:51:41.955Z,3.50
2018-03-04T07:54:08.341Z,3.50
2018-03-04T07:56:34.742Z,3.50
2018-03-04T07:59:01.125Z,3.60
2018-03-04T08:01:27.463Z,3.60
2018-03-04T08:03:53.871Z,3.70
2018-03-04T08:06:20.247Z,3.80
2018-03-04T08:08:46.662Z,3.80
2018-03-04T08:11:13.062Z,3.90
2018-03-04T08:13:39.453Z,4.00
2018-03-04T08:16:05.863Z,4.00
2018-03-04T08:18:32.240Z,4.10
2018-03-04T08:20:59.357Z,4.30
2018-03-04T08:23:25.737Z,4.30
2018-03-04T08:25:52.255Z,4.40
2018-03-04T08:28:31.993Z,4.50
2018-03-04T08:30:58.450Z,4.60
2018-03-04T08:33:24.829Z,4.60
2018-03-04T08:35:51.333Z,4.70
2018-03-04T08:38:17.722Z,4.70
2018-03-04T08:40:44.155Z,4.80
2018-03-04T08:43:11.316Z,4.90
2018-03-04T08:45:37.705Z,4.90
2018-03-04T08:48:04.101Z,5.00
2018-03-04T08:50:30.489Z,5.00
2018-03-04T08:52:57.619Z,5.10
2018-03-04T08:55:24.000Z,5.10
2018-03-04T08:57:50.463Z,5.20
2018-03-04T09:00:16.858Z,5.20
2018-03-04T09:02:43.268Z,5.30
2018-03-04T09:05:09.657Z,5.40
2018-03-04T09:07:36.026Z,5.50
2018-03-04T09:10:02.492Z,5.60
2018-03-04T09:12:28.897Z,5.70
2018-03-04T09:14:55.295Z,5.80
2018-03-04T09:17:21.684Z,5.90
2018-03-04T09:19:48.122Z,5.80
2018-03-04T09:22:14.499Z,5.90
2018-03-04T09:24:41.650Z,6.10
2018-03-04T09:27:08.872Z,6.20
2018-03-04T09:29:35.268Z,6.20
2018-03-04T09:32:01.802Z,6.30
2018-03-04T09:34:28.202Z,6.40
2018-03-04T09:36:55.521Z,6.60
2018-03-04T09:39:21.967Z,6.60
2018-03-04T09:41:48.402Z,6.60
2018-03-04T09:44:14.921Z,6.70
2018-03-04T09:46:41.281Z,6.70
2018-03-04T09:49:09.474Z,7.10
2018-03-04T09:51:36.896Z,7.00
2018-03-04T09:54:04.110Z,7.30
2018-03-04T09:56:30.536Z,7.30
2018-03-04T09:58:56.976Z,7.40
2018-03-04T10:01:23.397Z,7.50
2018-03-04T10:03:49.834Z,7.50
2018-03-04T10:06:16.374Z,7.70
2018-03-04T10:08:42.842Z,7.70
2018-03-04T10:11:09.997Z,7.90
2018-03-04T10:13:37.090Z,7.90
2018-03-04T10:16:03.509Z,7.90
2018-03-04T10:18:29.944Z,8.00
2018-03-04T10:20:56.971Z,8.10
2018-03-04T10:23:23.380Z,8.40
2018-03-04T10:25:50.542Z,8.40
2018-03-04T10:28:17.083Z,8.40
2018-03-04T10:30:43.498Z,8.50
2018-03-04T10:33:09.914Z,8.80
2018-03-04T10:35:37.239Z,8.80
2018-03-04T10:38:03.615Z,8.90
2018-03-04T10:40:30.836Z,8.80
2018-03-04T10:42:57.241Z,8.80
2018-03-04T10:45:23.684Z,8.90
2018-03-04T10:47:50.099Z,9.00
2018-03-04T10:50:16.667Z,9.00
2018-03-04T10:52:43.050Z,9.10
2018-03-04T10:55:09.545Z,9.20
2018-03-04T10:57:36.054Z,9.40
2018-03-04T11:00:02.601Z,9.60
2018-03-04T11:02:35.152Z,9.70
2018-03-04T11:05:01.656Z,9.70
2018-03-04T11:07:28.219Z,9.70
2018-03-04T11:09:54.665Z,9.70
2018-03-04T11:12:21.083Z,9.70
2018-03-04T11:14:47.562Z,9.70
2018-03-04T11:17:14.708Z,9.80
2018-03-04T11:19:41.900Z,10.00
2018-03-04T11:22:08.374Z,10.00
2018-03-04T11:24:34.769Z,10.20
2018-03-04T11:27:01.175Z,10.40
2018-03-04T11:29:27.594Z,10.40
2018-03-04T11:31:53.998Z,10.40
2018-03-04T11:34:20.439Z,10.50
2018-03-04T11:36:46.890Z,10.70
2018-03-04T11:39:13.290Z,10.80
2018-03-04T11:41:39.773Z,10.80
2018-03-04T11:44:06.148Z,10.80
2018-03-04T11:46:32.564Z,10.80
2018-03-04T11:48:59.061Z,10.90
2018-03-04T11:51:25.444Z,11.00
2018-03-04T11:53:51.864Z,11.10
2018-03-04T11:56:18.291Z,11.10
2018-03-04T11:58:44.704Z,11.10
2018-03-04T12:01:11.087Z,11.20
2018-03-04T12:03:38.234Z,11.30
2018-03-04T12:06:04.681Z,11.30
2018-03-04T12:08:31.082Z,11.40
2018-03-04T12:10:57.518Z,11.40
2018-03-04T12:13:23.907Z,11.40
2018-03-04T12:15:50.327Z,11.40
2018-03-04T12:18:16.689Z,11.60
2018-03-04T12:20:43.169Z,11.60
2018-03-04T12:23:09.552Z,11.70
2018-03-04T12:25:36.179Z,11.60
2018-03-04T12:28:03.337Z,11.60
2018-03-04T12:30:29.718Z,11.60
2018-03-04T12:32:56.306Z,11.60
2018-03-04T12:35:22.668Z,11.70
2018-03-04T12:37:49.145Z,11.60
2018-03-04T12:40:15.534Z,11.70
2018-03-04T12:42:42.679Z,11.90
2018-03-04T12:45:09.083Z,11.90
2018-03-04T12:47:35.507Z,11.90
2018-03-04T12:50:01.905Z,12.00
2018-03-04T12:52:28.376Z,12.10
2018-03-04T12:54:54.741Z,12.20
2018-03-04T12:57:21.916Z,12.40
2018-03-04T12:59:48.320Z,12.40
2018-03-04T13:02:15.452Z,12.50
2018-03-04T13:04:41.879Z,12.50
2018-03-04T13:07:08.328Z,12.40
2018-03-04T13:09:35.511Z,12.50
2018-03-04T13:12:01.907Z,12.50
2018-03-04T13:14:28.343Z,12.60
2018-03-04T13:16:55.499Z,12.60
2018-03-04T13:19:22.006Z,12.60
2018-03-04T13:21:48.456Z,12.70
2018-03-04T13:24:15.585Z,12.70
2018-03-04T13:26:41.996Z,12.70
2018-03-04T13:29:08.433Z,12.70
2018-03-04T13:31:34.882Z,12.70
2018-03-04T13:34:02.057Z,12.90
2018-03-04T13:36:28.559Z,12.80
2018-03-04T13:38:55.004Z,12.70
2018-03-04T13:41:21.485Z,12.70
2018-03-04T13:43:47.895Z,12.70
2018-03-04T13:46:14.287Z,12.60
2018-03-04T13:48:40.703Z,12.50
2018-03-04T13:51:07.912Z,12.30
2018-03-04T13:53:34.360Z,12.30
2018-03-04T13:56:00.817Z,12.30
2018-03-04T13:58:28.275Z,12.30
2018-03-04T14:00:54.699Z,12.30
2018-03-04T14:03:21.094Z,12.40
2018-03-04T14:05:47.505Z,12.40
2018-03-04T14:08:14.686Z,12.30
2018-03-04T14:10:41.121Z,12.30
2018-03-04T14:13:07.533Z,12.30
2018-03-04T14:15:33.990Z,12.20
2018-03-04T14:18:00.413Z,12.10
2018-03-04T14:20:26.825Z,12.10
2018-03-04T14:22:53.270Z,12.00
2018-03-04T14:25:19.805Z,12.00
2018-03-04T14:27:46.410Z,12.00
2018-03-04T14:30:12.889Z,12.10
2018-03-04T14:32:39.309Z,12.00
2018-03-04T14:35:05.789Z,12.00
2018-03-04T14:37:32.225Z,11.90
2018-03-04T14:39:59.371Z,11.90
2018-03-04T14:42:25.790Z,11.90
2018-03-04T14:44:52.295Z,11.80
2018-03-04T14:47:18.718Z,11.70
2018-03-04T14:49:45.159Z,11.70
2018-03-04T14:52:11.550Z,11.60
2018-03-04T14:54:37.960Z,11.60
2018-03-04T14:57:04.436Z,11.50
2018-03-04T14:59:30.953Z,11.40
2018-03-04T15:01:58.226Z,11.50
2018-03-04T15:04:24.717Z,11.40
2018-03-04T15:06:51.864Z,11.40
2018-03-04T15:09:18.268Z,11.40
2018-03-04T15:11:44.696Z,11.40
2018-03-04T15:14:11.112Z,11.50
2018-03-04T15:16:37.512Z,11.60
2018-03-04T15:19:03.928Z,11.60
2018-03-04T15:21:31.047Z,11.60
2018-03-04T15:23:57.495Z,11.60
2018-03-04T15:26:24.023Z,11.70
2018-03-04T15:28:51.192Z,11.50
2018-03-04T15:31:18.319Z,11.50
2018-03-04T15:33:44.703Z,11.50
2018-03-04T15:36:11.216Z,11.60
2018-03-04T15:38:37.629Z,11.60
2018-03-04T15:41:04.134Z,11.60
2018-03-04T15:43:30.592Z,11.50
2018-03-04T15:45:57.257Z,11.40
2018-03-04T15:48:23.705Z,11.20
2018-03-04T15:50:50.093Z,11.20
2018-03-04T15:53:17.298Z,11.10
2018-03-04T15:55:43.706Z,11.10
2018-03-04T15:58:10.255Z,11.10
2018-03-04T16:00:36.654Z,11.00
2018-03-04T16:03:03.782Z,10.90
2018-03-04T16:05:30.964Z,10.90
2018-03-04T16:07:57.496Z,10.80
2018-03-04T16:10:23.899Z,10.80
2018-03-04T16:12:51.071Z,10.70
2018-03-04T16:15:18.248Z,10.60
2018-03-04T16:17:44.708Z,10.60
2018-03-04T16:20:11.163Z,10.50
2018-03-04T16:22:37.570Z,10.50
2018-03-04T16:25:04.085Z,10.50
2018-03-04T16:27:30.531Z,10.40
2018-03-04T16:29:56.986Z,10.40
2018-03-04T16:32:23.468Z,10.40
2018-03-04T16:34:49.955Z,10.30
2018-03-04T16:37:16.378Z,10.30
2018-03-04T16:39:42.872Z,10.20
2018-03-04T16:42:09.363Z,10.10
2018-03-04T16:44:35.871Z,10.10
2018-03-04T16:47:03.054Z,10.10
2018-03-04T16:49:29.507Z,10.10
2018-03-04T16:51:55.945Z,10.10
2018-03-04T16:54:23.077Z,10.10
2018-03-04T16:56:49.545Z,10.10
2018-03-04T16:59:15.926Z,10.00
2018-03-04T17:01:43.164Z,9.90
2018-03-04T17:04:10.326Z,9.90
2018-03-04T17:06:37.469Z,9.80
2018-03-04T17:09:04.626Z,9.70
2018-03-04T17:11:31.817Z,9.70
2018-03-04T17:13:58.234Z,9.60
2018-03-04T17:16:24.689Z,9.60
2018-03-04T17:18:51.236Z,9.60
2018-03-04T17:21:17.700Z,9.50
2018-03-04T17:23:44.172Z,9.60
2018-03-04T17:26:10.616Z,9.50
2018-03-04T17:28:37.002Z,9.60
2018-03-04T17:31:03.538Z,9.60
2018-03-04T17:33:29.924Z,9.60
2018-03-04T17:35:56.370Z,9.70
2018-03-04T17:38:22.823Z,9.60
2018-03-04T17:40:49.986Z,9.60
2018-03-04T17:43:16.432Z,9.60
2018-03-04T17:45:43.065Z,9.50
2018-03-04T17:48:09.481Z,9.40
2018-03-04T17:50:35.931Z,9.40
2018-03-04T17:53:02.362Z,9.40
2018-03-04T17:55:28.787Z,9.40
2018-03-04T17:57:55.261Z,9.30
2018-03-04T18:00:21.671Z,9.30
2018-03-04T18:02:48.071Z,9.30
2018-03-04T18:05:14.434Z,9.30
2018-03-04T18:07:40.848Z,9.20
2018-03-04T18:10:07.251Z,9.30
2018-03-04T18:12:34.412Z,9.30
2018-03-04T18:15:00.906Z,9.30
2018-03-04T18:17:27.306Z,9.40
2018-03-04T18:19:53.751Z,9.30
2018-03-04T18:22:20.161Z,9.20
2018-03-04T18:24:53.502Z,9.20
2018-03-04T18:27:19.908Z,9.20
2018-03-04T18:29:46.396Z,9.20
2018-03-04T18:32:12.925Z,9.20
2018-03-04T18:34:39.357Z,9.30
2018-03-04T18:37:06.540Z,9.20
2018-03-04T18:39:32.952Z,9.20
2018-03-04T18:41:59.414Z,9.10
2018-03-04T18:44:25.829Z,9.10
2018-03-04T18:46:52.286Z,9.20
2018-03-04T18:49:18.716Z,9.20
2018-03-04T18:51:45.176Z,9.20
2018-03-04T18:54:12.335Z,9.20
2018-03-04T18:56:38.774Z,9.20
2018-03-04T18:59:05.957Z,9.10
2018-03-04T19:01:33.154Z,9.00
2018-03-04T19:03:59.563Z,9.00
2018-03-04T19:06:25.979Z,9.00
2018-03-04T19:08:52.360Z,8.90
2018-03-04T19:11:19.588Z,8.90
2018-03-04T19:13:47.332Z,8.90
2018-03-04T19:16:14.439Z,8.90
2018-03-04T19:18:40.884Z,8.90
2018-03-04T19:21:08.006Z,8.90
2018-03-04T19:23:34.481Z,8.90
2018-03-04T19:26:00.952Z,8.90
2018-03-04T19:28:27.451Z,8.80
2018-03-04T19:30:53.979Z,8.70
2018-03-04T19:33:21.046Z,8.80
2018-03-04T19:35:47.531Z,8.80
2018-03-04T19:38:14.062Z,8.70
2018-03-04T19:40:41.264Z,8.70
2018-03-04T19:43:07.747Z,8.70
2018-03-04T19:45:34.196Z,8.60
2018-03-04T19:48:00.761Z,8.60
2018-03-04T19:50:27.244Z,8.50
2018-03-04T19:52:53.832Z,8.40
2018-03-04T19:55:21.015Z,8.40
2018-03-04T19:57:48.222Z,8.30
2018-03-04T20:00:14.751Z,8.30
2018-03-04T20:02:41.228Z,8.20
2018-03-04T20:05:08.391Z,8.20
2018-03-04T20:07:34.909Z,8.20
2018-03-04T20:10:01.492Z,8.30
2018-03-04T20:12:28.680Z,8.20
2018-03-04T20:14:55.184Z,8.20
2018-03-04T20:17:21.569Z,8.20
2018-03-04T20:19:48.745Z,8.30
2018-03-04T20:22:16.165Z,8.30
2018-03-04T20:24:42.661Z,8.30
2018-03-04T20:27:09.058Z,8.30
2018-03-04T20:29:35.533Z,8.30
2018-03-04T20:32:02.069Z,8.20
2018-03-04T20:34:28.527Z,8.20
2018-03-04T20:36:55.746Z,8.00
2018-03-04T20:39:22.965Z,7.90
2018-03-04T20:41:49.449Z,7.90
2018-03-04T20:44:16.667Z,7.90
2018-03-04T20:46:43.232Z,7.90
2018-03-04T20:49:10.365Z,8.00
2018-03-04T20:51:36.873Z,8.00
2018-03-04T20:54:03.347Z,8.00
2018-03-04T20:56:29.872Z,7.90
2018-03-04T20:58:56.336Z,7.90
2018-03-04T21:01:22.882Z,7.90
2018-03-04T21:03:49.999Z,7.90
2018-03-04T21:06:17.352Z,7.90
2018-03-04T21:08:44.539Z,7.70
2018-03-04T21:11:10.983Z,7.70
2018-03-04T21:13:37.473Z,7.70
2018-03-04T21:16:04.646Z,7.70
2018-03-04T21:18:31.183Z,7.70
2018-03-04T21:20:57.485Z,7.70
2018-03-04T21:23:24.676Z,7.80
2018-03-04T21:25:51.165Z,7.70
2018-03-04T21:28:18.350Z,7.80
2018-03-04T21:30:44.771Z,7.80
2018-03-04T21:33:11.220Z,7.90
2018-03-04T21:35:37.656Z,8.00
2018-03-04T21:38:04.097Z,8.00
2018-03-04T21:40:30.607Z,8.10
2018-03-04T21:42:57.090Z,8.00
2018-03-04T21:45:24.450Z,8.00
2018-03-04T21:47:51.629Z,7.70
2018-03-04T21:50:18.052Z,7.70
2018-03-04T21:52:44.528Z,7.70
2018-03-04T21:55:10.958Z,7.70
2018-03-04T21:57:37.432Z,7.80
2018-03-04T22:00:04.684Z,7.70
2018-03-04T22:02:31.902Z,7.70
2018-03-04T22:04:58.337Z,7.70
2018-03-04T22:07:24.822Z,7.80
2018-03-04T22:09:51.301Z,7.80
2018-03-04T22:12:18.493Z,7.50
2018-03-04T22:14:44.987Z,7.50
2018-03-04T22:17:11.428Z,7.50
2018-03-04T22:19:37.870Z,7.50
2018-03-04T22:22:05.035Z,7.70
2018-03-04T22:24:31.484Z,7.60
2018-03-04T22:26:57.944Z,7.80
2018-03-04T22:29:24.360Z,7.80
2018-03-04T22:31:50.827Z,7.90
2018-03-04T22:34:17.240Z,8.00
2018-03-04T22:36:43.683Z,8.00
2018-03-04T22:39:10.107Z,8.00
2018-03-04T22:41:36.737Z,7.90
2018-03-04T22:44:03.150Z,7.90
2018-03-04T22:46:29.582Z,7.90
2018-03-04T22:48:56.007Z,7.80
2018-03-04T22:51:22.449Z,7.80
2018-03-04T22:53:48.891Z,7.70
2018-03-04T22:56:15.280Z,7.60
2018-03-04T22:58:41.710Z,7.60
2018-03-04T23:01:08.139Z,7.60
2018-03-04T23:03:35.323Z,7.70
2018-03-04T23:06:01.743Z,7.70
2018-03-04T23:08:28.169Z,7.80
2018-03-04T23:10:54.590Z,7.80
2018-03-04T23:13:21.063Z,7.90
2018-03-04T23:15:47.561Z,8.00
2018-03-04T23:18:13.942Z,8.00
2018-03-04T23:20:40.366Z,8.10
2018-03-04T23:23:06.847Z,8.10
2018-03-04T23:25:33.990Z,8.20
2018-03-04T23:28:01.182Z,8.20
2018-03-04T23:30:27.570Z,8.20
2018-03-04T23:32:54.047Z,8.30
2018-03-04T23:35:20.405Z,8.30
2018-03-04T23:37:46.830Z,8.30
2018-03-04T23:40:13.213Z,8.30
2018-03-04T23:42:39.757Z,8.30
2018-03-04T23:45:06.156Z,8.30
2018-03-04T23:47:33.284Z,8.40
2018-03-04T23:49:59.681Z,8.40
2018-03-04T23:52:26.155Z,8.40
2018-03-04T23:54:52.567Z,8.50
2018-03-04T23:57:19.002Z,8.50
2018-03-04T23:59:45.398Z,8.50
